VCV30 SVMI-SVMT
Flight info
| Callsign | VCV30 |
|---|---|
| Flight time | 0h 42m |
| Altitude | 33000 |
| Route | SOSKA2 CBC UG443 ESMEN |
| Aircraft | E190/M-SDE3GILORVW/S |
Departure
| Time | 2026-04-29 14:43 |
|---|---|
| Airport | Maiquetía Simón Bolívar International Airport (SVMI) |
Arrival
| Time | 2026-04-29 15:25 |
|---|---|
| Airport | José Tadeo Monagas International Airport (SVMT) |
| Time | Latitude | Longitude | Altitude | Speed | Heading |
|---|---|---|---|---|---|
| 2026-04-29 14:37 | 10.59911 | -67.00042 | 220 ft | 0 kts | 268° |
| 2026-04-29 14:38 | 10.59911 | -67.00044 | 220 ft | 1 kts | 268° |
| 2026-04-29 14:38 | 10.59910 | -67.00066 | 220 ft | 5 kts | 268° |
| 2026-04-29 14:38 | 10.59908 | -67.00113 | 221 ft | 8 kts | 268° |
| 2026-04-29 14:39 | 10.59906 | -67.00184 | 222 ft | 11 kts | 268° |
| 2026-04-29 14:39 | 10.59923 | -67.00264 | 225 ft | 12 kts | 298° |
| 2026-04-29 14:39 | 10.59992 | -67.00315 | 225 ft | 12 kts | 303° |
| 2026-04-29 14:39 | 10.60001 | -67.00402 | 225 ft | 13 kts | 268° |
| 2026-04-29 14:40 | 10.59998 | -67.00501 | 227 ft | 15 kts | 268° |
| 2026-04-29 14:40 | 10.59995 | -67.00608 | 229 ft | 16 kts | 268° |
| 2026-04-29 14:40 | 10.59991 | -67.00719 | 231 ft | 16 kts | 268° |
| 2026-04-29 14:40 | 10.59986 | -67.00836 | 233 ft | 17 kts | 268° |
| 2026-04-29 14:41 | 10.59983 | -67.00963 | 235 ft | 18 kts | 271° |
| 2026-04-29 14:41 | 10.59980 | -67.01096 | 237 ft | 19 kts | 267° |
| 2026-04-29 14:41 | 10.59983 | -67.01216 | 240 ft | 16 kts | 293° |
| 2026-04-29 14:41 | 10.60082 | -67.01243 | 240 ft | 16 kts | 1° |
| 2026-04-29 14:42 | 10.60202 | -67.01246 | 237 ft | 19 kts | 357° |
| 2026-04-29 14:42 | 10.60318 | -67.01252 | 239 ft | 16 kts | 358° |
| 2026-04-29 14:42 | 10.60382 | -67.01187 | 239 ft | 18 kts | 87° |
| 2026-04-29 14:42 | 10.60392 | -67.00930 | 233 ft | 64 kts | 88° |
| 2026-04-29 14:43 | 10.60414 | -67.00240 | 225 ft | 129 kts | 88° |
| 2026-04-29 14:43 | 10.60451 | -66.99163 | 388 ft | 170 kts | 88° |
| 2026-04-29 14:43 | 10.60507 | -66.97876 | 897 ft | 188 kts | 85° |
| 2026-04-29 14:43 | 10.60692 | -66.96550 | 1301 ft | 198 kts | 78° |
| 2026-04-29 14:44 | 10.60987 | -66.95133 | 2169 ft | 210 kts | 79° |
| 2026-04-29 14:44 | 10.61266 | -66.93657 | 3111 ft | 215 kts | 81° |
| 2026-04-29 14:44 | 10.61534 | -66.92103 | 3842 ft | 229 kts | 82° |
| 2026-04-29 14:44 | 10.61804 | -66.90481 | 4707 ft | 235 kts | 82° |
| 2026-04-29 14:45 | 10.62079 | -66.88839 | 5553 ft | 240 kts | 81° |
| 2026-04-29 14:45 | 10.62374 | -66.87158 | 6440 ft | 243 kts | 81° |
| 2026-04-29 14:45 | 10.62672 | -66.85467 | 7325 ft | 242 kts | 81° |
| 2026-04-29 14:45 | 10.62966 | -66.83790 | 8215 ft | 240 kts | 81° |
| 2026-04-29 14:46 | 10.63255 | -66.82130 | 9042 ft | 242 kts | 80° |
| 2026-04-29 14:46 | 10.63557 | -66.80400 | 9860 ft | 249 kts | 80° |
| 2026-04-29 14:46 | 10.63872 | -66.78596 | 10126 ft | 282 kts | 80° |
| 2026-04-29 14:46 | 10.64231 | -66.76541 | 10628 ft | 308 kts | 80° |
| 2026-04-29 14:47 | 10.64618 | -66.74318 | 11195 ft | 328 kts | 80° |
| 2026-04-29 14:47 | 10.65024 | -66.71980 | 10953 ft | 337 kts | 80° |
| 2026-04-29 14:47 | 10.65424 | -66.69663 | 10953 ft | 332 kts | 80° |
| 2026-04-29 14:47 | 10.65695 | -66.68102 | 10948 ft | 332 kts | 80° |
| 2026-04-29 14:48 | 10.66228 | -66.65032 | 10952 ft | 334 kts | 80° |
| 2026-04-29 14:48 | 10.66631 | -66.62709 | 10962 ft | 334 kts | 80° |
| 2026-04-29 14:48 | 10.67034 | -66.60389 | 10978 ft | 333 kts | 80° |
| 2026-04-29 14:48 | 10.67437 | -66.58064 | 10986 ft | 334 kts | 80° |
| 2026-04-29 14:49 | 10.67837 | -66.55743 | 10980 ft | 334 kts | 80° |
| 2026-04-29 14:49 | 10.68238 | -66.53413 | 10981 ft | 334 kts | 80° |
| 2026-04-29 14:49 | 10.68640 | -66.51083 | 11193 ft | 333 kts | 81° |
| 2026-04-29 14:49 | 10.68683 | -66.48725 | 12197 ft | 338 kts | 99° |
| 2026-04-29 14:50 | 10.68325 | -66.47180 | 12877 ft | 341 kts | 104° |
| 2026-04-29 14:50 | 10.67507 | -66.44057 | 14152 ft | 348 kts | 104° |
| 2026-04-29 14:50 | 10.66892 | -66.41652 | 15014 ft | 354 kts | 104° |
| 2026-04-29 14:50 | 10.66471 | -66.40006 | 15585 ft | 358 kts | 104° |
| 2026-04-29 14:51 | 10.65829 | -66.37508 | 15978 ft | 366 kts | 104° |
| 2026-04-29 14:51 | 10.65183 | -66.35032 | 15987 ft | 368 kts | 104° |
| 2026-04-29 14:51 | 10.64526 | -66.32520 | 15993 ft | 365 kts | 104° |
| 2026-04-29 14:51 | 10.63875 | -66.30021 | 15981 ft | 364 kts | 104° |
| 2026-04-29 14:52 | 10.63224 | -66.27533 | 15990 ft | 364 kts | 104° |
| 2026-04-29 14:52 | 10.62578 | -66.25048 | 15999 ft | 364 kts | 104° |
| 2026-04-29 14:52 | 10.61931 | -66.22561 | 16005 ft | 363 kts | 104° |
| 2026-04-29 14:52 | 10.61284 | -66.20082 | 16019 ft | 363 kts | 104° |
| 2026-04-29 14:53 | 10.60638 | -66.17604 | 16043 ft | 363 kts | 104° |
| 2026-04-29 14:53 | 10.59782 | -66.14317 | 16034 ft | 363 kts | 104° |
| 2026-04-29 14:53 | 10.59346 | -66.12641 | 16006 ft | 363 kts | 104° |
| 2026-04-29 14:53 | 10.58707 | -66.10195 | 15978 ft | 363 kts | 104° |
| 2026-04-29 14:54 | 10.58064 | -66.07721 | 15956 ft | 363 kts | 104° |
| 2026-04-29 14:54 | 10.57419 | -66.05247 | 15970 ft | 363 kts | 104° |
| 2026-04-29 14:54 | 10.56695 | -66.02796 | 15984 ft | 362 kts | 109° |
| 2026-04-29 14:54 | 10.55846 | -66.00386 | 15976 ft | 362 kts | 109° |
| 2026-04-29 14:55 | 10.55017 | -65.97961 | 15974 ft | 362 kts | 109° |
| 2026-04-29 14:55 | 10.54192 | -65.95544 | 15977 ft | 362 kts | 108° |
| 2026-04-29 14:55 | 10.53367 | -65.93119 | 15977 ft | 362 kts | 108° |
| 2026-04-29 14:55 | 10.52548 | -65.90700 | 16051 ft | 361 kts | 108° |
| 2026-04-29 14:56 | 10.51730 | -65.88284 | 16959 ft | 364 kts | 108° |
| 2026-04-29 14:56 | 10.50901 | -65.85830 | 17804 ft | 370 kts | 108° |
| 2026-04-29 14:56 | 10.50060 | -65.83339 | 18539 ft | 376 kts | 108° |
| 2026-04-29 14:56 | 10.49206 | -65.80809 | 19199 ft | 381 kts | 109° |
| 2026-04-29 14:57 | 10.48340 | -65.78246 | 19838 ft | 386 kts | 109° |
| 2026-04-29 14:57 | 10.47463 | -65.75648 | 20468 ft | 391 kts | 109° |
| 2026-04-29 14:57 | 10.46572 | -65.73010 | 20988 ft | 398 kts | 109° |
| 2026-04-29 14:57 | 10.45667 | -65.70332 | 20987 ft | 400 kts | 109° |
| 2026-04-29 14:58 | 10.44767 | -65.67668 | 21002 ft | 393 kts | 109° |
| 2026-04-29 14:58 | 10.43874 | -65.65025 | 21289 ft | 395 kts | 109° |
| 2026-04-29 14:58 | 10.42977 | -65.62373 | 21746 ft | 397 kts | 109° |
| 2026-04-29 14:58 | 10.42083 | -65.59726 | 22499 ft | 396 kts | 110° |
| 2026-04-29 14:59 | 10.41198 | -65.57108 | 23230 ft | 397 kts | 110° |
| 2026-04-29 14:59 | 10.40299 | -65.54451 | 23902 ft | 397 kts | 110° |
| 2026-04-29 14:59 | 10.39402 | -65.51800 | 24524 ft | 396 kts | 110° |
| 2026-04-29 14:59 | 10.38506 | -65.49152 | 25157 ft | 395 kts | 110° |
| 2026-04-29 15:00 | 10.37617 | -65.46525 | 25800 ft | 392 kts | 110° |
| 2026-04-29 15:00 | 10.36732 | -65.43911 | 26452 ft | 390 kts | 109° |
| 2026-04-29 15:00 | 10.35852 | -65.41314 | 27107 ft | 387 kts | 109° |
| 2026-04-29 15:00 | 10.34980 | -65.38739 | 27781 ft | 384 kts | 109° |
| 2026-04-29 15:01 | 10.34114 | -65.36185 | 28463 ft | 380 kts | 109° |
| 2026-04-29 15:01 | 10.33258 | -65.33662 | 29132 ft | 376 kts | 109° |
| 2026-04-29 15:01 | 10.32414 | -65.31173 | 29987 ft | 365 kts | 109° |
| 2026-04-29 15:01 | 10.31604 | -65.28783 | 30793 ft | 351 kts | 109° |
| 2026-04-29 15:02 | 10.30835 | -65.26515 | 31546 ft | 337 kts | 109° |
| 2026-04-29 15:02 | 10.30071 | -65.24267 | 31889 ft | 340 kts | 109° |
| 2026-04-29 15:02 | 10.29289 | -65.21964 | 31945 ft | 350 kts | 109° |
| 2026-04-29 15:03 | 10.27651 | -65.17142 | 32018 ft | 372 kts | 109° |
| 2026-04-29 15:03 | 10.26794 | -65.14620 | 32059 ft | 383 kts | 109° |
| 2026-04-29 15:03 | 10.25914 | -65.12032 | 32106 ft | 394 kts | 109° |
| 2026-04-29 15:03 | 10.25005 | -65.09355 | 31980 ft | 409 kts | 109° |
| 2026-04-29 15:04 | 10.24060 | -65.06577 | 31577 ft | 429 kts | 109° |
| 2026-04-29 15:04 | 10.23061 | -65.03643 | 30436 ft | 447 kts | 109° |
| 2026-04-29 15:04 | 10.22034 | -65.00628 | 29259 ft | 455 kts | 109° |
| 2026-04-29 15:04 | 10.20998 | -64.97585 | 28068 ft | 457 kts | 109° |
| 2026-04-29 15:05 | 10.19958 | -64.94536 | 26851 ft | 458 kts | 109° |
| 2026-04-29 15:05 | 10.18931 | -64.91524 | 25992 ft | 453 kts | 109° |
| 2026-04-29 15:05 | 10.17914 | -64.88539 | 25297 ft | 442 kts | 109° |
| 2026-04-29 15:05 | 10.16919 | -64.85621 | 24623 ft | 433 kts | 110° |
| 2026-04-29 15:06 | 10.15945 | -64.82764 | 23967 ft | 424 kts | 110° |
| 2026-04-29 15:06 | 10.14988 | -64.79962 | 23301 ft | 416 kts | 110° |
| 2026-04-29 15:06 | 10.14054 | -64.77228 | 22715 ft | 404 kts | 110° |
| 2026-04-29 15:06 | 10.13142 | -64.74559 | 22110 ft | 395 kts | 110° |
| 2026-04-29 15:07 | 10.12252 | -64.71954 | 21539 ft | 388 kts | 109° |
| 2026-04-29 15:07 | 10.11372 | -64.69381 | 21130 ft | 382 kts | 109° |
| 2026-04-29 15:07 | 10.10594 | -64.66807 | 20870 ft | 383 kts | 103° |
| 2026-04-29 15:07 | 10.10016 | -64.64165 | 20782 ft | 383 kts | 103° |
| 2026-04-29 15:08 | 10.09411 | -64.61519 | 20754 ft | 387 kts | 103° |
| 2026-04-29 15:08 | 10.08795 | -64.58853 | 20724 ft | 389 kts | 103° |
| 2026-04-29 15:08 | 10.08171 | -64.56182 | 20684 ft | 389 kts | 104° |
| 2026-04-29 15:08 | 10.07542 | -64.53505 | 20632 ft | 390 kts | 104° |
| 2026-04-29 15:09 | 10.06911 | -64.50831 | 20575 ft | 390 kts | 103° |
| 2026-04-29 15:09 | 10.06289 | -64.48184 | 20507 ft | 390 kts | 104° |
| 2026-04-29 15:09 | 10.05656 | -64.45512 | 20463 ft | 390 kts | 104° |
| 2026-04-29 15:09 | 10.05019 | -64.42842 | 20408 ft | 389 kts | 104° |
| 2026-04-29 15:10 | 10.04383 | -64.40179 | 20348 ft | 388 kts | 104° |
| 2026-04-29 15:10 | 10.03749 | -64.37520 | 20308 ft | 387 kts | 104° |
| 2026-04-29 15:10 | 10.03114 | -64.34858 | 20243 ft | 387 kts | 104° |
| 2026-04-29 15:10 | 10.02479 | -64.32203 | 20178 ft | 386 kts | 104° |
| 2026-04-29 15:11 | 10.01845 | -64.29548 | 20123 ft | 386 kts | 104° |
| 2026-04-29 15:11 | 10.01213 | -64.26905 | 20091 ft | 385 kts | 104° |
| 2026-04-29 15:11 | 10.00581 | -64.24259 | 20024 ft | 385 kts | 104° |
| 2026-04-29 15:11 | 9.99958 | -64.21654 | 19955 ft | 384 kts | 104° |
| 2026-04-29 15:12 | 9.99329 | -64.19026 | 19921 ft | 384 kts | 104° |
| 2026-04-29 15:12 | 9.98906 | -64.17247 | 19878 ft | 383 kts | 104° |
| 2026-04-29 15:12 | 9.98072 | -64.13764 | 19804 ft | 383 kts | 104° |
| 2026-04-29 15:12 | 9.97444 | -64.11140 | 19763 ft | 383 kts | 104° |
| 2026-04-29 15:13 | 9.96814 | -64.08511 | 19698 ft | 382 kts | 103° |
| 2026-04-29 15:13 | 9.96187 | -64.05890 | 19649 ft | 382 kts | 104° |
| 2026-04-29 15:13 | 9.95558 | -64.03268 | 19557 ft | 383 kts | 104° |
| 2026-04-29 15:13 | 9.94928 | -64.00638 | 19221 ft | 383 kts | 104° |
| 2026-04-29 15:14 | 9.94301 | -63.98023 | 18878 ft | 380 kts | 103° |
| 2026-04-29 15:14 | 9.93674 | -63.95410 | 18322 ft | 380 kts | 103° |
| 2026-04-29 15:14 | 9.93051 | -63.92820 | 17779 ft | 374 kts | 103° |
| 2026-04-29 15:14 | 9.92448 | -63.90312 | 17267 ft | 369 kts | 103° |
| 2026-04-29 15:15 | 9.91845 | -63.87802 | 16791 ft | 364 kts | 103° |
| 2026-04-29 15:15 | 9.91247 | -63.85323 | 16305 ft | 360 kts | 103° |
| 2026-04-29 15:15 | 9.90656 | -63.82864 | 15829 ft | 357 kts | 103° |
| 2026-04-29 15:15 | 9.90069 | -63.80426 | 15341 ft | 354 kts | 103° |
| 2026-04-29 15:16 | 9.89491 | -63.78016 | 14901 ft | 350 kts | 103° |
| 2026-04-29 15:16 | 9.88920 | -63.75640 | 14414 ft | 342 kts | 103° |
| 2026-04-29 15:16 | 9.88364 | -63.73330 | 13979 ft | 333 kts | 103° |
| 2026-04-29 15:16 | 9.87823 | -63.71072 | 13524 ft | 325 kts | 103° |
| 2026-04-29 15:17 | 9.87293 | -63.68869 | 13099 ft | 317 kts | 103° |
| 2026-04-29 15:17 | 9.86776 | -63.66720 | 12676 ft | 310 kts | 103° |
| 2026-04-29 15:17 | 9.86270 | -63.64619 | 12290 ft | 304 kts | 103° |
| 2026-04-29 15:17 | 9.85773 | -63.62552 | 11864 ft | 299 kts | 103° |
| 2026-04-29 15:18 | 9.85281 | -63.60523 | 11495 ft | 293 kts | 103° |
| 2026-04-29 15:18 | 9.84796 | -63.58527 | 11104 ft | 290 kts | 103° |
| 2026-04-29 15:18 | 9.84322 | -63.56547 | 10710 ft | 287 kts | 103° |
| 2026-04-29 15:18 | 9.83854 | -63.54585 | 10338 ft | 285 kts | 103° |
| 2026-04-29 15:19 | 9.83407 | -63.52728 | 9971 ft | 285 kts | 103° |
| 2026-04-29 15:19 | 9.82943 | -63.50781 | 9569 ft | 284 kts | 103° |
| 2026-04-29 15:19 | 9.82474 | -63.48847 | 9209 ft | 281 kts | 103° |
| 2026-04-29 15:19 | 9.82008 | -63.46930 | 8858 ft | 280 kts | 103° |
| 2026-04-29 15:20 | 9.81549 | -63.45040 | 8483 ft | 279 kts | 103° |
| 2026-04-29 15:20 | 9.81104 | -63.43114 | 7665 ft | 283 kts | 102° |
| 2026-04-29 15:20 | 9.80696 | -63.41154 | 6713 ft | 285 kts | 102° |
| 2026-04-29 15:20 | 9.80280 | -63.39172 | 5760 ft | 288 kts | 102° |
| 2026-04-29 15:21 | 9.79856 | -63.37186 | 4788 ft | 290 kts | 102° |
| 2026-04-29 15:21 | 9.79456 | -63.35247 | 4372 ft | 271 kts | 102° |
| 2026-04-29 15:21 | 9.79046 | -63.33419 | 4036 ft | 262 kts | 103° |
| 2026-04-29 15:21 | 9.78592 | -63.31650 | 3666 ft | 259 kts | 114° |
| 2026-04-29 15:22 | 9.77589 | -63.30137 | 3370 ft | 259 kts | 129° |
| 2026-04-29 15:22 | 9.76441 | -63.28771 | 3054 ft | 248 kts | 128° |
| 2026-04-29 15:22 | 9.75372 | -63.27437 | 2699 ft | 240 kts | 128° |
| 2026-04-29 15:22 | 9.74333 | -63.26149 | 2384 ft | 232 kts | 126° |
| 2026-04-29 15:23 | 9.73357 | -63.24904 | 2111 ft | 225 kts | 128° |
| 2026-04-29 15:23 | 9.72385 | -63.23719 | 2041 ft | 204 kts | 128° |
| 2026-04-29 15:23 | 9.71579 | -63.22623 | 1737 ft | 190 kts | 114° |
| 2026-04-29 15:23 | 9.71319 | -63.21402 | 1713 ft | 174 kts | 90° |
| 2026-04-29 15:24 | 9.71563 | -63.20184 | 1770 ft | 176 kts | 74° |
| 2026-04-29 15:24 | 9.71968 | -63.19031 | 1409 ft | 165 kts | 69° |
| 2026-04-29 15:24 | 9.72564 | -63.18119 | 1050 ft | 145 kts | 57° |
| 2026-04-29 15:24 | 9.73170 | -63.17332 | 684 ft | 135 kts | 56° |
| 2026-04-29 15:25 | 9.73784 | -63.16634 | 461 ft | 128 kts | 51° |
| 2026-04-29 15:25 | 9.74360 | -63.15966 | 266 ft | 123 kts | 51° |
| 2026-04-29 15:25 | 9.74860 | -63.15391 | 232 ft | 89 kts | 47° |
| 2026-04-29 15:25 | 9.75158 | -63.15052 | 235 ft | 38 kts | 49° |
| 2026-04-29 15:26 | 9.75312 | -63.14875 | 231 ft | 33 kts | 49° |
| 2026-04-29 15:26 | 9.75448 | -63.14715 | 231 ft | 23 kts | 51° |
| 2026-04-29 15:26 | 9.75503 | -63.14617 | 231 ft | 10 kts | 9° |
| 2026-04-29 15:26 | 9.75506 | -63.14667 | 232 ft | 9 kts | 229° |
| 2026-04-29 15:27 | 9.75456 | -63.14718 | 234 ft | 11 kts | 226° |
| 2026-04-29 15:27 | 9.75397 | -63.14784 | 231 ft | 14 kts | 229° |
| 2026-04-29 15:27 | 9.75329 | -63.14864 | 231 ft | 16 kts | 227° |
| 2026-04-29 15:27 | 9.75251 | -63.14949 | 233 ft | 17 kts | 226° |
| 2026-04-29 15:28 | 9.75168 | -63.15043 | 233 ft | 19 kts | 229° |
| 2026-04-29 15:28 | 9.75108 | -63.15111 | 233 ft | 20 kts | 228° |
| 2026-04-29 15:28 | 9.74972 | -63.15264 | 235 ft | 24 kts | 227° |
| 2026-04-29 15:28 | 9.74860 | -63.15396 | 235 ft | 25 kts | 231° |
| 2026-04-29 15:29 | 9.74772 | -63.15512 | 240 ft | 16 kts | 255° |
| 2026-04-29 15:29 | 9.74788 | -63.15558 | 232 ft | 0 kts | 310° |
| 2026-04-29 15:30 | 9.74790 | -63.15561 | 231 ft | 1 kts | 310° |
| 2026-04-29 15:30 | 9.74794 | -63.15565 | 231 ft | 0 kts | 310° |
| 2026-04-29 15:30 | 9.74796 | -63.15567 | 231 ft | 2 kts | 310° |
| 2026-04-29 15:30 | 9.74805 | -63.15586 | 237 ft | 4 kts | 285° |
| 2026-04-29 15:31 | 9.74787 | -63.15625 | 237 ft | 7 kts | 246° |
| 2026-04-29 15:31 | 9.74805 | -63.15652 | 237 ft | 5 kts | 337° |
| 2026-04-29 15:31 | 9.74832 | -63.15639 | 237 ft | 3 kts | 44° |
| 2026-04-29 15:31 | 9.74845 | -63.15625 | 235 ft | 2 kts | 46° |
| 2026-04-29 15:32 | 9.74850 | -63.15620 | 235 ft | 0 kts | 46° |
| 2026-04-29 15:32 | 9.74852 | -63.15617 | 235 ft | 1 kts | 46° |
| 2026-04-29 15:32 | 9.74857 | -63.15613 | 236 ft | 0 kts | 46° |